createdAt,value
2022-08-29T00:01:22.949Z,5.00
2022-08-29T00:03:50.313Z,4.60
2022-08-29T00:06:17.333Z,4.33
2022-08-29T00:08:44.292Z,4.63
2022-08-29T00:11:11.331Z,5.43
2022-08-29T00:13:38.253Z,4.77
2022-08-29T00:16:05.702Z,4.40
2022-08-29T00:18:33.258Z,6.23
2022-08-29T00:21:00.177Z,4.60
2022-08-29T00:23:27.087Z,4.60
2022-08-29T00:25:54.777Z,4.73
2022-08-29T00:28:21.824Z,5.20
2022-08-29T00:30:49.071Z,4.93
2022-08-29T00:33:17.012Z,4.80
2022-08-29T00:35:46.299Z,5.00
2022-08-29T00:38:18.298Z,5.50
2022-08-29T00:40:55.663Z,5.17
2022-08-29T00:43:31.326Z,4.90
2022-08-29T00:46:18.788Z,4.53
2022-08-29T00:48:59.459Z,5.00
2022-08-29T00:51:26.405Z,4.93
2022-08-29T00:54:01.208Z,5.17
2022-08-29T00:56:29.336Z,4.50
2022-08-29T00:59:07.858Z,4.57
2022-08-29T01:01:35.060Z,4.90
2022-08-29T01:04:02.020Z,6.00
2022-08-29T01:06:32.648Z,4.90
2022-08-29T01:08:59.686Z,4.70
2022-08-29T01:11:48.264Z,4.50
2022-08-29T01:14:18.471Z,4.87
2022-08-29T01:16:47.218Z,4.43
2022-08-29T01:20:00.873Z,5.37
2022-08-29T01:23:13.622Z,5.27
2022-08-29T01:25:48.587Z,4.57
2022-08-29T01:28:37.579Z,5.00
2022-08-29T01:31:46.942Z,5.50
2022-08-29T01:34:04.878Z,4.70
2022-08-29T01:36:50.356Z,5.43
2022-08-29T01:39:19.384Z,4.50
2022-08-29T01:41:46.292Z,5.70
2022-08-29T01:44:20.238Z,5.00
2022-08-29T01:46:58.032Z,7.60
2022-08-29T01:49:28.710Z,4.77
2022-08-29T01:51:55.654Z,4.93
2022-08-29T01:54:22.586Z,5.60
2022-08-29T01:56:52.812Z,6.20
2022-08-29T01:59:25.385Z,6.37
2022-08-29T02:02:07.446Z,5.73
2022-08-29T02:04:35.217Z,6.30
2022-08-29T02:07:03.316Z,6.20
2022-08-29T02:09:30.439Z,5.30
2022-08-29T02:12:00.230Z,5.50
2022-08-29T02:14:27.126Z,6.40
2022-08-29T02:16:54.293Z,6.00
2022-08-29T02:19:21.179Z,5.63
2022-08-29T02:21:51.076Z,5.60
2022-08-29T02:24:26.237Z,6.50
2022-08-29T02:26:55.435Z,6.80
2022-08-29T02:29:22.862Z,5.20
2022-08-29T02:31:49.805Z,6.43
2022-08-29T02:34:17.580Z,6.10
2022-08-29T02:36:44.793Z,7.40
2022-08-29T02:39:15.072Z,7.10
2022-08-29T02:41:42.066Z,6.67
2022-08-29T02:44:11.600Z,6.23
2022-08-29T02:46:38.632Z,7.03
2022-08-29T02:49:05.635Z,7.00
2022-08-29T02:51:33.740Z,6.67
2022-08-29T02:54:02.027Z,7.77
2022-08-29T02:56:29.863Z,7.43
2022-08-29T02:58:57.695Z,5.90
2022-08-29T03:01:26.131Z,7.33
2022-08-29T03:03:53.670Z,6.43
2022-08-29T03:06:21.917Z,7.03
2022-08-29T03:08:50.363Z,6.70
2022-08-29T03:11:18.106Z,7.53
2022-08-29T03:13:45.829Z,8.50
2022-08-29T03:16:13.549Z,6.90
2022-08-29T03:18:40.519Z,7.73
2022-08-29T03:21:17.231Z,7.37
2022-08-29T03:23:44.123Z,7.33
2022-08-29T03:26:11.040Z,7.00
2022-08-29T03:28:37.930Z,7.13
2022-08-29T03:31:05.168Z,6.90
2022-08-29T03:33:32.093Z,7.77
2022-08-29T03:35:59.079Z,6.60
2022-08-29T03:38:25.979Z,7.60
2022-08-29T03:40:53.414Z,7.53
2022-08-29T03:43:25.055Z,7.30
2022-08-29T03:45:52.576Z,8.40
2022-08-29T03:48:19.470Z,8.00
2022-08-29T03:50:46.398Z,7.50
2022-08-29T03:53:13.500Z,8.40
2022-08-29T03:55:40.434Z,7.60
2022-08-29T03:58:07.863Z,6.83
2022-08-29T04:00:34.860Z,8.57
2022-08-29T04:03:01.977Z,8.20
2022-08-29T04:05:28.939Z,8.00
2022-08-29T04:07:59.352Z,7.47
2022-08-29T04:10:34.468Z,8.00
2022-08-29T04:13:01.652Z,8.30
2022-08-29T04:15:29.432Z,8.10
2022-08-29T04:18:03.393Z,7.47
2022-08-29T04:20:34.051Z,8.37
2022-08-29T04:23:01.391Z,9.97
2022-08-29T04:25:37.224Z,8.50
2022-08-29T04:28:11.028Z,7.87
2022-08-29T04:30:39.755Z,8.07
2022-08-29T04:33:06.995Z,7.63
2022-08-29T04:35:35.533Z,8.17
2022-08-29T04:38:02.480Z,8.43
2022-08-29T04:40:29.633Z,8.40
2022-08-29T04:42:58.105Z,8.63
2022-08-29T04:45:25.674Z,8.53
2022-08-29T04:47:52.963Z,8.30
2022-08-29T04:50:23.033Z,8.47
2022-08-29T04:52:52.397Z,8.20
2022-08-29T04:55:22.676Z,8.60
2022-08-29T04:57:56.237Z,7.93
2022-08-29T05:00:28.040Z,8.40
2022-08-29T05:02:55.793Z,8.70
2022-08-29T05:05:23.092Z,8.00
2022-08-29T05:07:49.997Z,7.93
2022-08-29T05:10:20.391Z,8.53
2022-08-29T05:12:47.759Z,7.53
2022-08-29T05:15:15.866Z,8.17
2022-08-29T05:17:43.611Z,7.23
2022-08-29T05:20:12.061Z,8.07
2022-08-29T05:22:40.355Z,6.50
2022-08-29T05:25:07.872Z,6.80
2022-08-29T05:27:34.865Z,7.37
2022-08-29T05:30:04.107Z,6.33
2022-08-29T05:32:31.041Z,6.67
2022-08-29T05:34:58.881Z,7.90
2022-08-29T05:37:26.371Z,6.67
2022-08-29T05:39:53.336Z,6.80
2022-08-29T05:42:22.171Z,6.90
2022-08-29T05:44:49.648Z,6.70
2022-08-29T05:47:18.951Z,7.67
2022-08-29T05:49:47.114Z,6.40
2022-08-29T05:52:17.925Z,6.23
2022-08-29T05:54:45.431Z,7.27
2022-08-29T05:57:18.909Z,6.80
2022-08-29T05:59:48.014Z,6.50
2022-08-29T06:02:15.557Z,6.10
2022-08-29T06:04:42.559Z,7.33
2022-08-29T06:07:10.360Z,7.20
2022-08-29T06:09:39.487Z,6.70
2022-08-29T06:12:08.074Z,6.30
2022-08-29T06:14:35.155Z,5.97
2022-08-29T06:17:02.398Z,6.57
2022-08-29T06:19:34.692Z,6.40
2022-08-29T06:22:03.601Z,6.10
2022-08-29T06:24:38.726Z,6.20
2022-08-29T06:27:06.153Z,6.20
2022-08-29T06:29:33.104Z,7.13
2022-08-29T06:32:09.877Z,6.90
2022-08-29T06:34:36.861Z,5.63
2022-08-29T06:37:03.804Z,5.93
2022-08-29T06:39:30.804Z,6.47
2022-08-29T06:41:57.750Z,5.67
2022-08-29T06:44:25.122Z,6.07
2022-08-29T06:46:52.233Z,6.27
2022-08-29T06:49:20.591Z,5.33
2022-08-29T06:51:57.430Z,5.37
2022-08-29T06:54:28.082Z,6.83
2022-08-29T06:56:56.553Z,6.23
2022-08-29T06:59:23.607Z,5.33
2022-08-29T07:01:50.746Z,5.40
2022-08-29T07:04:20.627Z,6.20
2022-08-29T07:06:48.319Z,5.60
2022-08-29T07:09:15.332Z,5.27
2022-08-29T07:11:43.132Z,5.07
2022-08-29T07:14:11.706Z,4.10
2022-08-29T07:16:39.668Z,4.70
2022-08-29T07:19:10.125Z,4.00
2022-08-29T07:21:38.116Z,3.93
2022-08-29T07:24:05.946Z,3.00
2022-08-29T07:26:38.825Z,3.30
2022-08-29T07:29:13.070Z,3.43
2022-08-29T07:31:40.159Z,3.03
2022-08-29T07:34:07.663Z,3.00
2022-08-29T07:36:35.880Z,3.00
2022-08-29T07:39:08.603Z,2.70
2022-08-29T07:41:35.854Z,2.33
2022-08-29T07:44:03.012Z,2.27
2022-08-29T07:46:31.498Z,2.40
2022-08-29T07:49:00.145Z,2.20
2022-08-29T07:51:28.526Z,1.90
2022-08-29T07:53:56.683Z,2.00
2022-08-29T07:56:28.175Z,1.60
2022-08-29T07:58:56.607Z,1.30
2022-08-29T08:01:24.705Z,1.10
2022-08-29T08:03:53.020Z,1.07
2022-08-29T08:06:27.364Z,1.13
2022-08-29T08:08:55.398Z,1.07
2022-08-29T08:11:24.838Z,1.17
2022-08-29T08:13:53.776Z,0.73
2022-08-29T08:16:25.003Z,0.80
2022-08-29T08:18:53.310Z,0.93
2022-08-29T08:21:20.679Z,0.70
2022-08-29T08:23:47.655Z,1.10
2022-08-29T08:26:15.273Z,1.10
2022-08-29T08:28:43.685Z,0.90
2022-08-29T08:31:14.261Z,1.00
2022-08-29T08:33:42.727Z,1.00
2022-08-29T08:36:22.563Z,0.97
2022-08-29T08:38:51.421Z,0.90
2022-08-29T08:41:29.613Z,0.77
2022-08-29T08:44:07.069Z,1.20
2022-08-29T08:46:43.078Z,0.67
2022-08-29T08:49:38.620Z,0.90
2022-08-29T08:52:18.643Z,0.93
2022-08-29T08:55:20.892Z,1.00
2022-08-29T08:58:01.451Z,0.70
2022-08-29T09:00:38.318Z,1.00
2022-08-29T09:03:17.034Z,1.30
2022-08-29T09:06:15.752Z,0.63
2022-08-29T09:09:34.364Z,1.00
2022-08-29T09:12:32.518Z,1.30
2022-08-29T09:15:07.871Z,1.03
2022-08-29T09:18:01.381Z,0.90
2022-08-29T09:20:34.120Z,0.70
2022-08-29T09:23:07.469Z,0.83
2022-08-29T09:25:36.374Z,0.83
2022-08-29T09:28:07.225Z,0.80
2022-08-29T09:30:36.740Z,1.73
2022-08-29T09:33:08.901Z,1.50
2022-08-29T09:35:44.369Z,0.70
2022-08-29T09:38:23.966Z,1.20
2022-08-29T09:40:56.933Z,1.20
2022-08-29T09:43:39.062Z,0.70
2022-08-29T09:46:10.911Z,0.83
2022-08-29T09:48:42.130Z,0.70
2022-08-29T09:51:22.200Z,1.00
2022-08-29T09:53:49.395Z,0.83
2022-08-29T09:56:25.136Z,0.70
2022-08-29T09:59:11.786Z,0.70
2022-08-29T10:01:39.553Z,0.90
2022-08-29T10:04:08.054Z,0.80
2022-08-29T10:06:45.030Z,0.70
2022-08-29T10:09:28.038Z,0.70
2022-08-29T10:12:16.829Z,0.80
2022-08-29T10:14:54.957Z,0.90
2022-08-29T10:17:56.461Z,0.80
2022-08-29T10:20:40.397Z,0.97
2022-08-29T10:23:30.927Z,0.70
2022-08-29T10:26:04.983Z,0.70
2022-08-29T10:28:43.082Z,0.90
2022-08-29T10:31:19.912Z,0.73
2022-08-29T10:34:11.231Z,0.90
2022-08-29T10:36:40.684Z,0.80
2022-08-29T10:39:19.242Z,1.47
2022-08-29T10:42:11.638Z,0.70
2022-08-29T10:45:25.351Z,0.93
2022-08-29T10:48:06.764Z,0.80
2022-08-29T10:51:05.369Z,0.80
2022-08-29T10:53:44.139Z,0.73
2022-08-29T10:56:28.623Z,0.70
2022-08-29T10:59:18.186Z,0.70
2022-08-29T11:02:01.710Z,0.70
2022-08-29T11:04:37.876Z,0.90
2022-08-29T11:07:16.341Z,0.77
2022-08-29T11:09:58.941Z,0.70
2022-08-29T11:12:55.686Z,0.60
2022-08-29T11:15:44.974Z,0.70
2022-08-29T11:18:59.100Z,0.70
2022-08-29T11:21:39.435Z,0.80
2022-08-29T11:24:07.408Z,0.77
2022-08-29T11:26:43.163Z,0.70
2022-08-29T11:29:50.833Z,0.80
2022-08-29T11:32:50.749Z,0.87
2022-08-29T11:36:02.449Z,0.63
2022-08-29T11:39:05.304Z,0.83
2022-08-29T11:41:38.701Z,0.90
2022-08-29T11:44:29.827Z,0.77
2022-08-29T11:46:57.831Z,0.80
2022-08-29T11:49:32.053Z,0.80
2022-08-29T11:52:18.907Z,0.80
2022-08-29T11:55:16.195Z,0.90
2022-08-29T11:58:22.988Z,0.80
2022-08-29T12:00:56.157Z,0.80
2022-08-29T12:03:35.670Z,0.83
2022-08-29T12:06:39.700Z,0.67
2022-08-29T12:09:13.828Z,0.90
2022-08-29T12:12:02.411Z,1.10
2022-08-29T12:14:43.831Z,0.70
2022-08-29T12:17:58.260Z,0.90
2022-08-29T12:20:38.057Z,1.00
2022-08-29T12:23:11.206Z,1.03
2022-08-29T12:28:58.136Z,0.93
2022-08-29T12:32:17.821Z,0.80
2022-08-29T12:35:22.430Z,1.00
2022-08-29T12:38:50.010Z,0.90
2022-08-29T12:41:56.557Z,0.90
2022-08-29T12:44:37.427Z,0.97
2022-08-29T12:47:25.178Z,1.00
2022-08-29T12:49:57.377Z,1.00
2022-08-29T12:52:31.691Z,1.10
2022-08-29T12:55:23.817Z,0.90
2022-08-29T12:57:56.922Z,1.03
2022-08-29T13:00:29.109Z,1.00
2022-08-29T13:03:05.381Z,0.80
2022-08-29T13:05:41.954Z,1.03
2022-08-29T13:08:26.299Z,1.07
2022-08-29T13:11:01.464Z,0.93
2022-08-29T13:13:30.008Z,0.83
2022-08-29T13:16:01.902Z,1.00
2022-08-29T13:18:31.155Z,0.77
2022-08-29T13:21:14.006Z,0.80
2022-08-29T13:23:47.188Z,0.80
2022-08-29T13:26:14.244Z,0.80
2022-08-29T13:28:59.556Z,0.80
2022-08-29T13:31:36.255Z,0.90
2022-08-29T13:34:19.617Z,0.80
2022-08-29T13:37:00.596Z,1.00
2022-08-29T13:39:43.465Z,0.70
2022-08-29T13:42:20.562Z,0.80
2022-08-29T13:44:51.787Z,0.90
2022-08-29T13:47:40.430Z,0.60
2022-08-29T13:50:13.240Z,0.70
2022-08-29T13:52:40.172Z,0.80
2022-08-29T13:55:09.863Z,1.07
2022-08-29T13:57:40.924Z,1.13
2022-08-29T14:00:11.689Z,1.37
2022-08-29T14:02:44.626Z,1.23
2022-08-29T14:05:13.703Z,1.40
2022-08-29T14:07:43.314Z,1.40
2022-08-29T14:10:12.984Z,1.33
2022-08-29T14:12:40.047Z,1.43
2022-08-29T14:15:10.716Z,1.43
2022-08-29T14:17:40.977Z,1.30
2022-08-29T14:20:12.475Z,1.20
2022-08-29T14:22:40.016Z,1.27
2022-08-29T14:25:10.677Z,1.13
2022-08-29T14:27:38.682Z,1.20
2022-08-29T14:30:08.954Z,1.13
2022-08-29T14:32:35.920Z,1.23
2022-08-29T14:35:04.534Z,1.20
2022-08-29T14:37:33.160Z,1.47
2022-08-29T14:40:00.143Z,1.17
2022-08-29T14:42:27.402Z,1.40
2022-08-29T14:44:54.310Z,1.17
2022-08-29T14:47:21.236Z,1.77
2022-08-29T14:49:48.133Z,1.77
2022-08-29T14:52:15.257Z,1.50
2022-08-29T14:54:43.136Z,1.30
2022-08-29T14:57:11.224Z,1.20
2022-08-29T14:59:40.565Z,1.23
2022-08-29T15:02:09.955Z,1.33
2022-08-29T15:04:37.966Z,1.73
2022-08-29T15:07:11.789Z,2.50
2022-08-29T15:09:41.884Z,2.00
2022-08-29T15:12:09.226Z,2.10
2022-08-29T15:14:36.246Z,2.13
2022-08-29T15:17:06.469Z,1.90
2022-08-29T15:22:22.767Z,1.57
2022-08-29T15:24:51.349Z,2.03
2022-08-29T15:27:26.860Z,1.73
2022-08-29T15:29:55.430Z,1.90
2022-08-29T15:32:22.532Z,3.40
2022-08-29T15:34:49.751Z,2.10
2022-08-29T15:37:16.806Z,2.60
2022-08-29T15:39:43.709Z,3.23
2022-08-29T15:42:12.128Z,2.63
2022-08-29T15:44:44.312Z,2.30
2022-08-29T15:47:11.522Z,2.87
2022-08-29T15:49:39.502Z,3.20
2022-08-29T15:52:06.577Z,7.97
2022-08-29T15:54:33.509Z,4.80
2022-08-29T15:57:00.424Z,4.20
2022-08-29T15:59:54.434Z,2.20
2022-08-29T16:02:15.117Z,2.90
2022-08-29T16:04:47.472Z,2.00
2022-08-29T16:07:16.840Z,2.40
2022-08-29T16:09:44.941Z,3.20
2022-08-29T16:12:11.927Z,1.70
2022-08-29T16:14:58.544Z,2.10
2022-08-29T16:17:29.641Z,2.00
2022-08-29T16:19:56.815Z,2.40
2022-08-29T16:22:24.385Z,2.57
2022-08-29T16:24:51.294Z,2.60
2022-08-29T16:27:22.008Z,3.27
2022-08-29T16:29:48.916Z,4.20
2022-08-29T16:32:16.288Z,2.90
2022-08-29T16:34:43.479Z,3.43
2022-08-29T16:37:10.751Z,3.10
2022-08-29T16:39:37.661Z,2.33
2022-08-29T16:42:04.687Z,2.00
2022-08-29T16:44:33.150Z,2.70
2022-08-29T16:47:00.088Z,2.40
2022-08-29T16:49:27.185Z,2.50
2022-08-29T16:51:54.089Z,2.80
2022-08-29T16:54:20.998Z,3.03
2022-08-29T16:56:47.938Z,3.00
2022-08-29T16:59:14.974Z,2.83
2022-08-29T17:01:46.175Z,2.47
2022-08-29T17:04:22.274Z,2.83
2022-08-29T17:06:49.508Z,2.93
2022-08-29T17:09:20.296Z,3.47
2022-08-29T17:11:47.836Z,2.77
2022-08-29T17:14:17.294Z,3.33
2022-08-29T17:16:47.592Z,3.30
2022-08-29T17:19:15.162Z,3.03
2022-08-29T17:21:43.228Z,3.10
2022-08-29T17:24:11.139Z,3.27
2022-08-29T17:26:42.125Z,3.30
2022-08-29T17:29:10.047Z,3.50
2022-08-29T17:31:38.931Z,3.17
2022-08-29T17:34:08.167Z,3.10
2022-08-29T17:36:36.902Z,3.60
2022-08-29T17:39:06.092Z,4.10
2022-08-29T17:41:33.432Z,3.10
2022-08-29T17:44:02.488Z,3.00
2022-08-29T17:46:29.854Z,3.80
2022-08-29T17:48:57.159Z,3.50
2022-08-29T17:51:24.248Z,3.63
2022-08-29T17:53:51.815Z,4.00
2022-08-29T17:56:26.417Z,3.83
2022-08-29T17:58:53.385Z,3.90
2022-08-29T18:01:20.397Z,3.27
2022-08-29T18:03:47.380Z,3.20
2022-08-29T18:06:15.330Z,2.37
2022-08-29T18:08:44.096Z,2.47
2022-08-29T18:11:16.539Z,2.27
2022-08-29T18:13:44.127Z,2.50
2022-08-29T18:16:12.044Z,1.83
2022-08-29T18:18:41.228Z,1.73
2022-08-29T18:21:08.817Z,2.10
2022-08-29T18:23:36.391Z,2.47
2022-08-29T18:26:04.087Z,2.83
2022-08-29T18:28:31.465Z,2.53
2022-08-29T18:30:59.000Z,2.73
2022-08-29T18:33:38.908Z,2.40
2022-08-29T18:36:11.929Z,2.10
2022-08-29T18:38:38.852Z,2.20
2022-08-29T18:41:06.450Z,2.00
2022-08-29T18:43:34.754Z,2.03
2022-08-29T18:46:03.739Z,2.40
2022-08-29T18:48:31.348Z,2.70
2022-08-29T18:50:59.665Z,3.10
2022-08-29T18:53:31.010Z,3.70
2022-08-29T18:56:00.199Z,2.60
2022-08-29T18:58:30.972Z,3.03
2022-08-29T19:00:59.707Z,2.53
2022-08-29T19:03:26.955Z,3.90
2022-08-29T19:05:53.975Z,3.27
2022-08-29T19:08:24.721Z,3.27
2022-08-29T19:10:55.299Z,3.20
2022-08-29T19:13:25.318Z,3.80
2022-08-29T19:15:56.741Z,3.00
2022-08-29T19:18:23.721Z,2.60
2022-08-29T19:21:02.427Z,2.70
2022-08-29T19:23:38.263Z,2.67
2022-08-29T19:26:34.959Z,3.73
2022-08-29T19:29:12.550Z,3.40
2022-08-29T19:31:41.184Z,2.60
2022-08-29T19:34:08.515Z,3.20
2022-08-29T19:36:36.478Z,2.97
2022-08-29T19:39:03.651Z,3.23
2022-08-29T19:41:34.285Z,3.07
2022-08-29T19:44:01.280Z,3.50
2022-08-29T19:46:28.198Z,3.37
2022-08-29T19:48:55.396Z,2.80
2022-08-29T19:51:24.425Z,3.03
2022-08-29T19:53:53.520Z,3.30
2022-08-29T19:56:20.452Z,3.10
2022-08-29T19:58:47.620Z,3.43
2022-08-29T20:01:16.947Z,3.23
2022-08-29T20:03:43.994Z,3.80
2022-08-29T20:06:12.227Z,3.50
2022-08-29T20:08:45.462Z,3.30
2022-08-29T20:11:21.100Z,3.43
2022-08-29T20:13:51.149Z,3.73
2022-08-29T20:16:22.394Z,3.40
2022-08-29T20:18:52.106Z,3.60
2022-08-29T20:21:20.904Z,3.30
2022-08-29T20:23:52.858Z,3.20
2022-08-29T20:26:24.512Z,3.93
2022-08-29T20:28:52.532Z,4.37
2022-08-29T20:31:20.270Z,3.57
2022-08-29T20:33:48.792Z,4.00
2022-08-29T20:36:38.621Z,3.30
2022-08-29T20:39:07.706Z,3.67
2022-08-29T20:41:34.660Z,3.60
2022-08-29T20:44:06.922Z,3.83
2022-08-29T20:46:40.254Z,4.00
2022-08-29T20:49:09.599Z,3.77
2022-08-29T20:51:37.579Z,4.23
2022-08-29T20:54:06.161Z,3.80
2022-08-29T20:56:33.306Z,3.67
2022-08-29T20:59:00.215Z,3.40
2022-08-29T21:01:27.230Z,3.40
2022-08-29T21:04:13.011Z,3.20
2022-08-29T21:06:39.932Z,3.40
2022-08-29T21:09:07.386Z,3.30
2022-08-29T21:11:34.448Z,3.20
2022-08-29T21:14:01.379Z,3.60
2022-08-29T21:16:28.633Z,3.30
2022-08-29T21:18:55.655Z,3.40
2022-08-29T21:21:24.946Z,3.63
2022-08-29T21:23:52.332Z,3.30
2022-08-29T21:26:19.242Z,2.93
2022-08-29T21:28:47.224Z,3.00
2022-08-29T21:31:15.462Z,3.17
2022-08-29T21:33:45.428Z,3.37
2022-08-29T21:36:19.162Z,3.23
2022-08-29T21:38:48.158Z,2.80
2022-08-29T21:41:15.864Z,3.10
2022-08-29T21:43:43.020Z,2.63
2022-08-29T21:46:29.793Z,3.20
2022-08-29T21:49:00.129Z,2.90
2022-08-29T21:51:28.376Z,2.93
2022-08-29T21:53:57.486Z,2.53
2022-08-29T21:56:26.888Z,3.20
2022-08-29T21:58:55.109Z,3.10
2022-08-29T22:01:27.170Z,2.47
2022-08-29T22:03:54.592Z,3.10
2022-08-29T22:06:21.949Z,3.10
2022-08-29T22:08:49.330Z,3.30
2022-08-29T22:11:24.936Z,2.60
2022-08-29T22:14:06.191Z,2.60
2022-08-29T22:16:33.594Z,2.10
2022-08-29T22:19:03.949Z,2.30
2022-08-29T22:21:35.981Z,2.40
2022-08-29T22:24:03.756Z,2.20
2022-08-29T22:26:30.840Z,1.47
2022-08-29T22:28:57.750Z,1.90
2022-08-29T22:31:24.920Z,1.60
2022-08-29T22:33:51.990Z,1.50
2022-08-29T22:36:20.045Z,1.37
2022-08-29T22:38:47.734Z,1.40
2022-08-29T22:41:23.596Z,1.10
2022-08-29T22:44:16.483Z,0.93
2022-08-29T22:46:43.947Z,1.23
2022-08-29T22:49:10.939Z,1.00
2022-08-29T22:51:37.927Z,1.20
2022-08-29T22:54:23.867Z,1.03
2022-08-29T22:56:50.881Z,1.20
2022-08-29T22:59:21.624Z,1.00
2022-08-29T23:01:48.640Z,0.97
2022-08-29T23:04:15.635Z,1.10
2022-08-29T23:06:42.632Z,0.90
2022-08-29T23:09:10.488Z,0.80
2022-08-29T23:11:37.635Z,0.83
2022-08-29T23:14:06.787Z,0.87
2022-08-29T23:16:34.835Z,1.00
2022-08-29T23:19:02.444Z,0.90
2022-08-29T23:21:31.114Z,1.17
2022-08-29T23:23:58.506Z,0.90
2022-08-29T23:26:26.554Z,0.90
2022-08-29T23:28:53.860Z,0.70
2022-08-29T23:31:22.539Z,0.80
2022-08-29T23:33:50.227Z,0.77
2022-08-29T23:36:18.520Z,0.80
2022-08-29T23:38:45.652Z,1.10
2022-08-29T23:41:13.581Z,1.00
2022-08-29T23:43:41.361Z,0.70
2022-08-29T23:46:08.727Z,0.90
2022-08-29T23:48:36.152Z,1.03
2022-08-29T23:51:09.026Z,0.97
2022-08-29T23:53:36.215Z,1.00
2022-08-29T23:56:16.159Z,1.00
2022-08-29T23:58:43.258Z,1.20
